createdAt,value
2023-04-26T00:01:16.628Z,1.33
2023-04-26T00:03:44.570Z,1.40
2023-04-26T00:06:14.095Z,1.48
2023-04-26T00:08:42.351Z,1.58
2023-04-26T00:11:10.175Z,1.50
2023-04-26T00:13:38.471Z,1.58
2023-04-26T00:16:06.043Z,1.35
2023-04-26T00:18:34.074Z,1.40
2023-04-26T00:21:01.590Z,1.25
2023-04-26T00:23:29.174Z,1.52
2023-04-26T00:25:57.241Z,1.50
2023-04-26T00:28:24.679Z,1.08
2023-04-26T00:30:52.102Z,1.40
2023-04-26T00:33:19.877Z,1.35
2023-04-26T00:35:47.264Z,1.55
2023-04-26T00:38:14.675Z,1.10
2023-04-26T00:40:42.378Z,1.33
2023-04-26T00:43:09.771Z,1.30
2023-04-26T00:45:37.238Z,1.87
2023-04-26T00:48:05.155Z,1.62
2023-04-26T00:50:32.654Z,1.58
2023-04-26T00:53:00.592Z,1.30
2023-04-26T00:55:28.444Z,1.40
2023-04-26T00:57:55.907Z,1.15
2023-04-26T01:00:23.344Z,1.20
2023-04-26T01:02:51.317Z,1.37
2023-04-26T01:05:18.889Z,1.20
2023-04-26T01:07:46.298Z,1.15
2023-04-26T01:10:14.093Z,1.42
2023-04-26T01:12:41.510Z,1.37
2023-04-26T01:15:10.267Z,1.58
2023-04-26T01:17:38.116Z,1.30
2023-04-26T01:20:10.000Z,1.35
2023-04-26T01:22:37.737Z,1.23
2023-04-26T01:25:05.738Z,1.40
2023-04-26T01:27:33.513Z,1.30
2023-04-26T01:30:01.229Z,1.30
2023-04-26T01:32:29.054Z,1.17
2023-04-26T01:34:58.057Z,1.55
2023-04-26T01:37:26.458Z,1.70
2023-04-26T01:39:53.865Z,1.30
2023-04-26T01:42:21.316Z,1.48
2023-04-26T01:44:49.047Z,1.48
2023-04-26T01:47:16.536Z,0.95
2023-04-26T01:49:43.946Z,1.10
2023-04-26T01:52:11.629Z,1.27
2023-04-26T01:54:39.077Z,1.77
2023-04-26T01:57:06.889Z,1.58
2023-04-26T01:59:34.569Z,1.33
2023-04-26T02:02:02.189Z,1.23
2023-04-26T02:04:30.091Z,1.05
2023-04-26T02:06:57.569Z,1.30
2023-04-26T02:09:25.013Z,1.30
2023-04-26T02:11:52.661Z,1.30
2023-04-26T02:14:20.383Z,1.45
2023-04-26T02:16:49.449Z,1.17
2023-04-26T02:19:17.347Z,1.08
2023-04-26T02:22:11.124Z,1.25
2023-04-26T02:24:41.991Z,1.23
2023-04-26T02:27:09.433Z,1.55
2023-04-26T02:29:43.521Z,1.23
2023-04-26T02:32:13.119Z,1.10
2023-04-26T02:34:41.049Z,1.20
2023-04-26T02:37:09.044Z,1.25
2023-04-26T02:39:36.550Z,1.50
2023-04-26T02:42:04.372Z,1.37
2023-04-26T02:44:31.788Z,1.00
2023-04-26T02:46:59.279Z,1.10
2023-04-26T02:49:27.169Z,1.10
2023-04-26T02:51:54.692Z,1.30
2023-04-26T02:54:22.208Z,1.30
2023-04-26T02:56:49.933Z,1.40
2023-04-26T02:59:17.403Z,1.40
2023-04-26T03:01:45.061Z,1.17
2023-04-26T03:04:12.969Z,1.20
2023-04-26T03:06:40.957Z,1.55
2023-04-26T03:09:08.440Z,1.25
2023-04-26T03:11:36.362Z,1.20
2023-04-26T03:14:03.775Z,1.10
2023-04-26T03:16:31.831Z,1.70
2023-04-26T03:18:59.658Z,1.52
2023-04-26T03:21:27.956Z,1.17
2023-04-26T03:23:55.531Z,1.08
2023-04-26T03:26:23.281Z,1.12
2023-04-26T03:28:51.838Z,1.10
2023-04-26T03:31:21.341Z,1.45
2023-04-26T03:33:49.039Z,1.30
2023-04-26T03:36:17.309Z,1.20
2023-04-26T03:38:44.830Z,1.30
2023-04-26T03:41:13.747Z,1.37
2023-04-26T03:43:41.219Z,0.93
2023-04-26T03:46:08.724Z,1.50
2023-04-26T03:48:36.604Z,1.10
2023-04-26T03:51:04.008Z,1.40
2023-04-26T03:53:31.523Z,1.30
2023-04-26T03:55:59.245Z,1.25
2023-04-26T03:58:26.814Z,1.30
2023-04-26T04:00:58.354Z,1.25
2023-04-26T04:03:26.717Z,1.30
2023-04-26T04:05:54.276Z,1.10
2023-04-26T04:08:21.776Z,1.02
2023-04-26T04:10:49.737Z,1.02
2023-04-26T04:13:17.124Z,1.40
2023-04-26T04:15:44.627Z,1.58
2023-04-26T04:18:13.486Z,0.90
2023-04-26T04:20:41.697Z,1.70
2023-04-26T04:23:09.990Z,0.90
2023-04-26T04:25:38.972Z,1.05
2023-04-26T04:28:06.578Z,1.42
2023-04-26T04:30:34.424Z,1.15
2023-04-26T04:33:03.383Z,1.15
2023-04-26T04:35:33.639Z,0.98
2023-04-26T04:38:03.107Z,1.40
2023-04-26T04:40:33.684Z,1.40
2023-04-26T04:43:02.170Z,1.20
2023-04-26T04:45:30.435Z,1.12
2023-04-26T04:47:58.299Z,1.40
2023-04-26T04:50:27.158Z,1.27
2023-04-26T04:52:54.652Z,1.00
2023-04-26T04:55:22.481Z,1.48
2023-04-26T04:57:50.103Z,1.27
2023-04-26T05:00:18.009Z,1.60
2023-04-26T05:02:46.307Z,1.60
2023-04-26T05:05:14.034Z,1.00
2023-04-26T05:07:41.501Z,1.25
2023-04-26T05:10:09.887Z,1.20
2023-04-26T05:12:37.472Z,1.80
2023-04-26T05:15:05.364Z,1.10
2023-04-26T05:17:33.989Z,1.25
2023-04-26T05:20:06.806Z,1.40
2023-04-26T05:22:36.812Z,2.05
2023-04-26T05:27:32.812Z,1.50
2023-04-26T05:30:05.803Z,1.98
2023-04-26T05:32:33.542Z,2.00
2023-04-26T05:35:01.746Z,1.87
2023-04-26T05:37:31.717Z,1.40
2023-04-26T05:39:59.172Z,2.00
2023-04-26T05:42:27.024Z,1.30
2023-04-26T05:45:00.640Z,1.30
2023-04-26T05:47:28.248Z,1.65
2023-04-26T05:49:56.091Z,1.70
2023-04-26T05:52:23.547Z,1.50
2023-04-26T05:54:52.554Z,1.60
2023-04-26T05:57:20.208Z,1.50
2023-04-26T05:59:48.181Z,1.42
2023-04-26T06:02:16.815Z,1.55
2023-04-26T06:04:44.767Z,1.70
2023-04-26T06:07:12.800Z,1.60
2023-04-26T06:09:40.314Z,1.20
2023-04-26T06:12:08.060Z,1.70
2023-04-26T06:14:36.000Z,1.40
2023-04-26T06:17:03.924Z,1.40
2023-04-26T06:19:31.712Z,1.40
2023-04-26T06:21:59.226Z,1.45
2023-04-26T06:24:26.783Z,1.30
2023-04-26T06:26:54.545Z,1.48
2023-04-26T06:29:22.463Z,1.90
2023-04-26T06:31:51.409Z,1.50
2023-04-26T06:34:19.408Z,1.25
2023-04-26T06:36:47.422Z,1.30
2023-04-26T06:39:15.514Z,1.45
2023-04-26T06:41:43.490Z,1.50
2023-04-26T06:44:11.537Z,1.35
2023-04-26T06:46:42.491Z,1.73
2023-04-26T06:49:11.608Z,1.67
2023-04-26T06:51:39.177Z,1.87
2023-04-26T06:54:06.935Z,1.35
2023-04-26T06:56:34.604Z,1.27
2023-04-26T06:59:03.324Z,1.10
2023-04-26T07:01:33.768Z,1.12
2023-04-26T07:04:03.848Z,1.50
2023-04-26T07:06:31.478Z,1.45
2023-04-26T07:09:01.163Z,1.80
2023-04-26T07:11:29.454Z,1.30
2023-04-26T07:13:57.167Z,1.30
2023-04-26T07:16:24.693Z,1.40
2023-04-26T07:18:58.402Z,1.12
2023-04-26T07:21:26.956Z,1.05
2023-04-26T07:23:58.180Z,1.15
2023-04-26T07:26:26.690Z,1.35
2023-04-26T07:28:54.255Z,1.10
2023-04-26T07:31:21.997Z,1.37
2023-04-26T07:33:49.552Z,1.10
2023-04-26T07:36:17.187Z,1.30
2023-04-26T07:38:44.933Z,1.02
2023-04-26T07:41:13.105Z,1.23
2023-04-26T07:43:40.632Z,1.10
2023-04-26T07:46:08.440Z,1.27
2023-04-26T07:48:36.245Z,1.25
2023-04-26T07:51:13.011Z,1.40
2023-04-26T07:53:41.264Z,1.15
2023-04-26T07:56:09.059Z,1.30
2023-04-26T07:58:36.913Z,0.98
2023-04-26T08:01:04.626Z,1.30
2023-04-26T08:03:32.744Z,1.20
2023-04-26T08:06:01.401Z,1.20
2023-04-26T08:08:29.029Z,1.45
2023-04-26T08:10:56.789Z,1.48
2023-04-26T08:13:28.597Z,1.55
2023-04-26T08:15:57.114Z,1.40
2023-04-26T08:18:24.558Z,1.40
2023-04-26T08:20:52.180Z,1.30
2023-04-26T08:23:19.920Z,1.42
2023-04-26T08:25:47.966Z,1.20
2023-04-26T08:28:16.171Z,1.25
2023-04-26T08:30:43.908Z,1.30
2023-04-26T08:33:11.383Z,1.40
2023-04-26T08:35:38.846Z,1.50
2023-04-26T08:38:06.536Z,1.20
2023-04-26T08:40:34.136Z,1.20
2023-04-26T08:43:01.552Z,1.27
2023-04-26T08:45:29.260Z,1.25
2023-04-26T08:48:09.255Z,1.40
2023-04-26T08:50:37.308Z,1.37
2023-04-26T08:53:04.790Z,1.50
2023-04-26T08:55:32.213Z,1.73
2023-04-26T08:57:59.867Z,1.65
2023-04-26T09:00:27.464Z,1.60
2023-04-26T09:02:54.955Z,1.55
2023-04-26T09:05:24.712Z,1.20
2023-04-26T09:07:56.356Z,1.35
2023-04-26T09:10:24.347Z,1.37
2023-04-26T09:12:52.832Z,1.62
2023-04-26T09:15:27.107Z,1.50
2023-04-26T09:17:54.866Z,1.40
2023-04-26T09:20:26.384Z,1.65
2023-04-26T09:23:07.106Z,1.83
2023-04-26T09:25:35.171Z,1.60
2023-04-26T09:28:03.779Z,1.33
2023-04-26T09:30:32.248Z,1.60
2023-04-26T09:33:04.668Z,1.70
2023-04-26T09:35:33.418Z,1.52
2023-04-26T09:38:07.975Z,1.45
2023-04-26T09:40:40.697Z,1.52
2023-04-26T09:43:11.604Z,1.62
2023-04-26T09:45:58.774Z,1.55
2023-04-26T09:48:30.960Z,1.58
2023-04-26T09:50:59.608Z,1.50
2023-04-26T09:53:31.698Z,1.85
2023-04-26T09:56:09.140Z,1.60
2023-04-26T09:58:58.912Z,1.60
2023-04-26T10:01:30.071Z,1.67
2023-04-26T10:03:59.607Z,1.87
2023-04-26T10:06:28.347Z,1.77
2023-04-26T10:08:56.293Z,2.03
2023-04-26T10:11:24.386Z,1.75
2023-04-26T10:13:52.080Z,1.70
2023-04-26T10:16:21.030Z,2.33
2023-04-26T10:18:49.445Z,1.73
2023-04-26T10:21:21.493Z,1.73
2023-04-26T10:23:49.177Z,2.12
2023-04-26T10:26:57.483Z,1.58
2023-04-26T10:29:26.077Z,1.60
2023-04-26T10:32:17.416Z,1.58
2023-04-26T10:34:45.638Z,1.77
2023-04-26T10:37:13.975Z,1.67
2023-04-26T10:39:42.159Z,1.52
2023-04-26T10:42:26.654Z,1.95
2023-04-26T10:44:58.480Z,1.73
2023-04-26T10:47:37.111Z,1.52
2023-04-26T10:50:06.197Z,2.05
2023-04-26T10:52:35.002Z,1.42
2023-04-26T10:55:02.891Z,1.90
2023-04-26T10:57:50.415Z,1.70
2023-04-26T11:00:21.176Z,1.83
2023-04-26T11:02:59.030Z,1.75
2023-04-26T11:05:41.061Z,1.55
2023-04-26T11:08:15.799Z,1.70
2023-04-26T11:10:45.266Z,1.98
2023-04-26T11:13:12.674Z,1.90
2023-04-26T11:15:40.125Z,1.87
2023-04-26T11:18:07.893Z,1.90
2023-04-26T11:20:35.647Z,1.90
2023-04-26T11:23:03.146Z,1.70
2023-04-26T11:25:31.327Z,1.75
2023-04-26T11:28:03.116Z,1.80
2023-04-26T11:30:31.819Z,1.55
2023-04-26T11:33:00.034Z,2.10
2023-04-26T11:35:29.538Z,1.60
2023-04-26T11:38:00.832Z,1.70
2023-04-26T11:40:29.751Z,1.70
2023-04-26T11:43:02.450Z,2.10
2023-04-26T11:45:32.033Z,1.77
2023-04-26T11:48:01.198Z,1.83
2023-04-26T11:50:28.729Z,1.60
2023-04-26T11:52:56.596Z,1.90
2023-04-26T11:55:25.902Z,1.40
2023-04-26T11:57:53.344Z,1.65
2023-04-26T12:00:21.197Z,2.00
2023-04-26T12:02:49.419Z,1.70
2023-04-26T12:05:32.469Z,1.42
2023-04-26T12:08:00.497Z,1.70
2023-04-26T12:10:36.772Z,1.35
2023-04-26T12:13:04.498Z,1.65
2023-04-26T12:15:32.777Z,1.77
2023-04-26T12:18:08.983Z,1.58
2023-04-26T12:20:37.934Z,1.73
2023-04-26T12:23:06.578Z,1.40
2023-04-26T12:25:34.986Z,1.52
2023-04-26T12:28:04.452Z,1.65
2023-04-26T12:30:31.933Z,1.40
2023-04-26T12:33:15.390Z,1.50
2023-04-26T12:35:44.692Z,1.40
2023-04-26T12:38:12.571Z,1.62
2023-04-26T12:40:40.169Z,1.37
2023-04-26T12:43:07.966Z,1.52
2023-04-26T12:45:35.411Z,1.77
2023-04-26T12:48:02.975Z,1.48
2023-04-26T12:50:31.274Z,1.58
2023-04-26T12:52:58.683Z,1.48
2023-04-26T12:55:26.788Z,1.50
2023-04-26T12:57:54.532Z,1.40
2023-04-26T13:00:22.207Z,1.58
2023-04-26T13:02:49.703Z,1.37
2023-04-26T13:05:17.610Z,1.48
2023-04-26T13:07:45.093Z,1.15
2023-04-26T13:10:13.359Z,1.40
2023-04-26T13:12:41.122Z,1.10
2023-04-26T13:15:08.826Z,1.60
2023-04-26T13:17:39.861Z,1.48
2023-04-26T13:20:08.014Z,1.27
2023-04-26T13:22:35.494Z,1.40
2023-04-26T13:25:03.414Z,1.35
2023-04-26T13:27:33.199Z,1.30
2023-04-26T13:30:00.764Z,1.50
2023-04-26T13:32:29.222Z,1.30
2023-04-26T13:34:57.083Z,1.42
2023-04-26T13:37:24.524Z,1.17
2023-04-26T13:39:51.930Z,1.30
2023-04-26T13:42:19.627Z,1.25
2023-04-26T13:44:47.077Z,1.67
2023-04-26T13:47:14.476Z,1.10
2023-04-26T13:49:42.221Z,1.12
2023-04-26T13:52:09.633Z,1.27
2023-04-26T13:54:37.163Z,1.30
2023-04-26T13:57:05.034Z,1.10
2023-04-26T13:59:32.416Z,1.20
2023-04-26T14:01:59.846Z,1.00
2023-04-26T14:04:27.799Z,1.30
2023-04-26T14:06:55.638Z,1.95
2023-04-26T14:09:23.036Z,2.17
2023-04-26T14:12:06.646Z,1.30
2023-04-26T14:14:35.312Z,1.83
2023-04-26T14:17:03.083Z,1.77
2023-04-26T14:19:30.533Z,1.42
2023-04-26T14:21:58.024Z,1.73
2023-04-26T14:24:25.914Z,1.87
2023-04-26T14:26:53.364Z,1.62
2023-04-26T14:29:21.233Z,1.67
2023-04-26T14:31:48.946Z,1.50
2023-04-26T14:34:16.676Z,1.67
2023-04-26T14:36:44.199Z,1.33
2023-04-26T14:39:11.992Z,1.77
2023-04-26T14:41:39.440Z,1.62
2023-04-26T14:44:06.895Z,1.70
2023-04-26T14:46:35.976Z,1.73
2023-04-26T14:49:03.449Z,1.40
2023-04-26T14:51:32.019Z,1.67
2023-04-26T14:53:59.823Z,2.33
2023-04-26T14:56:32.154Z,1.87
2023-04-26T14:59:01.254Z,2.15
2023-04-26T15:01:28.947Z,2.28
2023-04-26T15:03:59.315Z,1.98
2023-04-26T15:06:30.809Z,2.30
2023-04-26T15:08:58.431Z,1.92
2023-04-26T15:11:25.884Z,2.22
2023-04-26T15:13:53.610Z,2.22
2023-04-26T15:16:21.048Z,2.17
2023-04-26T15:18:48.482Z,1.87
2023-04-26T15:21:17.312Z,1.83
2023-04-26T15:23:45.133Z,1.73
2023-04-26T15:26:12.650Z,2.05
2023-04-26T15:28:40.606Z,2.28
2023-04-26T15:31:08.929Z,1.95
2023-04-26T15:33:36.528Z,1.73
2023-04-26T15:36:04.424Z,1.95
2023-04-26T15:38:32.054Z,1.77
2023-04-26T15:40:59.517Z,1.85
2023-04-26T15:43:27.288Z,1.85
2023-04-26T15:45:55.057Z,1.95
2023-04-26T15:48:22.602Z,2.25
2023-04-26T15:50:53.727Z,2.30
2023-04-26T15:53:21.845Z,1.75
2023-04-26T15:55:49.321Z,1.75
2023-04-26T15:58:18.224Z,1.92
2023-04-26T16:00:46.273Z,1.83
2023-04-26T16:03:14.089Z,1.83
2023-04-26T16:05:41.640Z,1.90
2023-04-26T16:08:09.548Z,2.03
2023-04-26T16:10:38.437Z,1.92
2023-04-26T16:13:06.114Z,1.60
2023-04-26T16:15:33.595Z,2.22
2023-04-26T16:18:01.519Z,1.85
2023-04-26T16:20:28.974Z,1.92
2023-04-26T16:22:56.483Z,1.45
2023-04-26T16:44:27.390Z,1.83
2023-04-26T16:46:55.838Z,1.55
2023-04-26T16:49:23.377Z,1.50
2023-04-26T16:51:58.828Z,2.10
2023-04-26T16:54:26.692Z,2.08
2023-04-26T16:56:54.154Z,1.70
2023-04-26T16:59:21.607Z,1.70
2023-04-26T17:01:49.476Z,1.45
2023-04-26T17:04:17.485Z,1.75
2023-04-26T17:06:46.131Z,1.62
2023-04-26T17:09:13.981Z,1.70
2023-04-26T17:11:43.578Z,1.80
2023-04-26T17:14:11.223Z,1.70
2023-04-26T17:16:39.469Z,1.80
2023-04-26T17:19:07.386Z,2.20
2023-04-26T17:21:34.886Z,1.70
2023-04-26T17:24:04.516Z,1.37
2023-04-26T17:26:32.030Z,1.73
2023-04-26T17:28:59.449Z,1.73
2023-04-26T17:31:28.746Z,1.75
2023-04-26T17:33:56.376Z,1.80
2023-04-26T17:36:23.966Z,1.80
2023-04-26T17:38:51.625Z,2.03
2023-04-26T17:41:19.684Z,1.55
2023-04-26T17:43:47.263Z,1.80
2023-04-26T17:46:15.085Z,1.52
2023-04-26T17:48:42.585Z,1.70
2023-04-26T17:51:11.489Z,1.70
2023-04-26T17:53:40.278Z,1.75
2023-04-26T17:56:10.223Z,1.50
2023-04-26T17:58:38.382Z,1.50
2023-04-26T18:01:06.713Z,1.65
2023-04-26T18:03:36.150Z,1.80
2023-04-26T18:06:05.774Z,1.30
2023-04-26T18:08:33.355Z,1.60
2023-04-26T18:11:01.334Z,1.33
2023-04-26T18:13:29.153Z,2.08
2023-04-26T18:16:04.844Z,1.50
2023-04-26T18:18:32.765Z,2.12
2023-04-26T18:21:00.559Z,1.65
2023-04-26T18:23:28.364Z,1.80
2023-04-26T18:25:56.452Z,1.50
2023-04-26T18:28:24.158Z,1.48
2023-04-26T18:31:00.671Z,2.35
2023-04-26T18:33:29.182Z,1.70
2023-04-26T18:35:57.136Z,1.67
2023-04-26T18:38:25.484Z,1.73
2023-04-26T18:40:53.415Z,1.70
2023-04-26T18:43:24.701Z,1.58
2023-04-26T18:45:53.935Z,1.40
2023-04-26T18:48:21.971Z,1.50
2023-04-26T18:50:53.267Z,1.70
2023-04-26T18:53:22.565Z,1.48
2023-04-26T18:55:54.029Z,1.70
2023-04-26T18:58:22.547Z,1.40
2023-04-26T19:00:50.231Z,1.73
2023-04-26T19:03:19.048Z,1.52
2023-04-26T19:05:48.360Z,1.70
2023-04-26T19:08:16.742Z,1.25
2023-04-26T19:10:45.667Z,1.90
2023-04-26T19:13:18.156Z,1.60
2023-04-26T19:15:47.182Z,1.60
2023-04-26T19:18:16.847Z,1.40
2023-04-26T19:20:45.643Z,1.55
2023-04-26T19:23:14.852Z,1.60
2023-04-26T19:25:43.359Z,1.92
2023-04-26T19:28:12.881Z,1.75
2023-04-26T19:30:41.908Z,1.65
2023-04-26T19:33:09.989Z,1.58
2023-04-26T19:35:38.021Z,2.08
2023-04-26T19:38:07.275Z,1.92
2023-04-26T19:40:35.222Z,2.92
2023-04-26T19:43:03.097Z,3.08
2023-04-26T19:45:33.297Z,3.15
2023-04-26T19:50:33.572Z,2.60
2023-04-26T19:53:06.082Z,2.28
2023-04-26T19:55:38.299Z,2.72
2023-04-26T19:58:07.383Z,2.45
2023-04-26T20:00:36.615Z,2.50
2023-04-26T20:03:06.104Z,2.37
2023-04-26T20:05:36.280Z,2.00
2023-04-26T20:08:06.620Z,2.30
2023-04-26T20:10:35.661Z,2.03
2023-04-26T20:13:04.995Z,2.30
2023-04-26T20:15:33.880Z,2.00
2023-04-26T20:18:02.785Z,2.20
2023-04-26T20:20:31.271Z,2.05
2023-04-26T20:23:00.291Z,2.27
2023-04-26T20:25:29.832Z,2.37
2023-04-26T20:27:58.236Z,2.03
2023-04-26T20:30:29.332Z,2.15
2023-04-26T20:32:57.780Z,2.37
2023-04-26T20:35:25.773Z,2.00
2023-04-26T20:37:54.640Z,1.83
2023-04-26T20:40:23.087Z,1.98
2023-04-26T20:42:50.628Z,2.12
2023-04-26T20:45:18.976Z,2.28
2023-04-26T20:47:47.236Z,1.95
2023-04-26T20:50:14.799Z,1.73
2023-04-26T20:52:43.509Z,1.90
2023-04-26T20:55:11.101Z,2.10
2023-04-26T20:57:38.648Z,1.98
2023-04-26T21:00:07.894Z,2.05
2023-04-26T21:02:35.420Z,1.70
2023-04-26T21:05:04.678Z,2.10
2023-04-26T21:07:33.087Z,1.90
2023-04-26T21:10:00.469Z,1.90
2023-04-26T21:12:27.861Z,1.83
2023-04-26T21:14:55.525Z,1.85
2023-04-26T21:17:23.022Z,1.60
2023-04-26T21:19:50.932Z,2.20
2023-04-26T21:22:18.632Z,1.95
2023-04-26T21:24:46.153Z,2.03
2023-04-26T21:27:13.561Z,1.95
2023-04-26T21:29:41.272Z,1.85
2023-04-26T21:32:08.682Z,2.00
2023-04-26T21:34:37.303Z,2.08
2023-04-26T21:37:04.997Z,1.58
2023-04-26T21:39:32.447Z,1.70
2023-04-26T21:41:59.852Z,1.70
2023-04-26T21:44:27.550Z,1.60
2023-04-26T21:46:54.970Z,2.15
2023-04-26T21:49:22.453Z,2.12
2023-04-26T21:51:50.164Z,1.95
2023-04-26T21:54:17.566Z,1.42
2023-04-26T21:56:44.985Z,1.67
2023-04-26T21:59:14.154Z,1.67
2023-04-26T22:01:41.667Z,1.70
2023-04-26T22:04:09.454Z,1.77
2023-04-26T22:06:36.975Z,1.60
2023-04-26T22:09:04.832Z,1.55
2023-04-26T22:11:33.697Z,1.80
2023-04-26T22:14:01.358Z,1.83
2023-04-26T22:16:28.845Z,1.80
2023-04-26T22:18:56.577Z,1.83
2023-04-26T22:21:24.004Z,1.95
2023-04-26T22:23:51.463Z,1.95
2023-04-26T22:26:19.170Z,1.62
2023-04-26T22:28:46.592Z,1.60
2023-04-26T22:31:14.070Z,1.73
2023-04-26T22:33:41.772Z,1.60
2023-04-26T22:36:09.305Z,1.75
2023-04-26T22:38:36.720Z,1.52
2023-04-26T22:41:07.199Z,1.58
2023-04-26T22:43:35.168Z,1.40
2023-04-26T22:46:02.709Z,1.37
2023-04-26T22:48:30.827Z,1.90
2023-04-26T22:50:59.880Z,1.73
2023-04-26T22:53:27.324Z,1.87
2023-04-26T22:55:55.068Z,1.83
2023-04-26T22:58:22.495Z,1.65
2023-04-26T23:00:50.001Z,1.35
2023-04-26T23:03:17.849Z,1.67
2023-04-26T23:05:47.209Z,1.85
2023-04-26T23:08:14.617Z,1.60
2023-04-26T23:10:42.393Z,1.58
2023-04-26T23:13:09.825Z,1.73
2023-04-26T23:15:37.226Z,2.10
2023-04-26T23:18:05.361Z,1.60
2023-04-26T23:20:32.876Z,1.45
2023-04-26T23:23:00.297Z,1.30
2023-04-26T23:25:27.999Z,1.58
2023-04-26T23:27:55.455Z,1.30
2023-04-26T23:30:22.870Z,1.50
2023-04-26T23:32:50.660Z,1.50
2023-04-26T23:35:18.084Z,1.80
2023-04-26T23:37:45.738Z,1.60
2023-04-26T23:40:13.732Z,1.55
2023-04-26T23:42:41.395Z,1.62
2023-04-26T23:45:09.781Z,2.00
2023-04-26T23:47:37.582Z,1.37
2023-04-26T23:50:05.552Z,1.55
2023-04-26T23:52:33.019Z,1.60
2023-04-26T23:55:00.744Z,1.52
2023-04-26T23:57:28.146Z,1.50
2023-04-26T23:59:55.707Z,1.73
